createdAt,value
2023-01-02T00:00:22.668Z,3.88
2023-01-02T00:02:49.385Z,3.80
2023-01-02T00:05:15.923Z,3.88
2023-01-02T00:07:42.373Z,3.30
2023-01-02T00:10:08.922Z,3.30
2023-01-02T00:12:35.336Z,3.20
2023-01-02T00:15:03.007Z,3.25
2023-01-02T00:17:29.485Z,3.50
2023-01-02T00:19:56.931Z,4.10
2023-01-02T00:22:23.699Z,3.70
2023-01-02T00:24:50.260Z,3.88
2023-01-02T00:27:16.667Z,3.40
2023-01-02T00:29:43.155Z,3.67
2023-01-02T00:32:09.569Z,3.67
2023-01-02T00:34:36.010Z,3.58
2023-01-02T00:37:02.466Z,3.05
2023-01-02T00:39:29.561Z,3.20
2023-01-02T00:41:56.102Z,2.80
2023-01-02T00:44:22.506Z,3.30
2023-01-02T00:46:48.956Z,2.58
2023-01-02T00:49:15.381Z,2.70
2023-01-02T00:51:41.880Z,3.10
2023-01-02T00:54:08.431Z,3.33
2023-01-02T00:56:34.915Z,3.05
2023-01-02T00:59:01.402Z,3.10
2023-01-02T01:01:27.973Z,3.05
2023-01-02T01:03:54.478Z,2.90
2023-01-02T01:06:21.543Z,2.67
2023-01-02T01:08:55.840Z,2.83
2023-01-02T01:11:22.261Z,2.90
2023-01-02T01:13:48.731Z,2.58
2023-01-02T01:16:17.982Z,2.70
2023-01-02T01:18:45.017Z,2.13
2023-01-02T01:21:16.990Z,2.42
2023-01-02T01:23:43.970Z,2.38
2023-01-02T01:26:13.303Z,2.33
2023-01-02T01:28:40.571Z,2.20
2023-01-02T01:31:09.684Z,2.20
2023-01-02T01:33:36.883Z,2.50
2023-01-02T01:36:14.469Z,2.30
2023-01-02T01:38:41.826Z,2.47
2023-01-02T01:41:09.528Z,2.35
2023-01-02T01:43:41.143Z,2.35
2023-01-02T01:46:17.993Z,2.95
2023-01-02T01:48:45.558Z,2.58
2023-01-02T01:51:12.134Z,2.90
2023-01-02T01:53:38.726Z,3.30
2023-01-02T01:56:08.404Z,3.15
2023-01-02T01:58:41.800Z,3.35
2023-01-02T02:01:10.158Z,4.10
2023-01-02T02:03:37.569Z,3.20
2023-01-02T02:06:04.673Z,3.08
2023-01-02T02:08:43.141Z,2.88
2023-01-02T02:11:11.357Z,3.15
2023-01-02T02:13:37.814Z,3.38
2023-01-02T02:16:12.566Z,2.70
2023-01-02T02:19:16.369Z,3.15
2023-01-02T02:21:54.904Z,2.83
2023-01-02T02:24:45.865Z,3.05
2023-01-02T02:27:50.218Z,3.20
2023-01-02T02:30:36.916Z,3.10
2023-01-02T02:33:33.528Z,2.90
2023-01-02T02:36:05.955Z,2.72
2023-01-02T02:38:50.705Z,2.60
2023-01-02T02:41:45.925Z,2.80
2023-01-02T02:44:24.642Z,2.70
2023-01-02T02:47:08.947Z,2.40
2023-01-02T02:49:57.016Z,2.35
2023-01-02T02:52:29.897Z,2.45
2023-01-02T02:55:13.980Z,2.42
2023-01-02T02:57:43.266Z,2.47
2023-01-02T03:00:13.890Z,2.90
2023-01-02T03:02:40.864Z,2.80
2023-01-02T03:05:12.183Z,2.42
2023-01-02T03:07:42.649Z,2.53
2023-01-02T03:10:23.424Z,2.58
2023-01-02T03:12:52.851Z,2.38
2023-01-02T03:15:35.653Z,2.97
2023-01-02T03:18:08.162Z,2.55
2023-01-02T03:20:59.626Z,2.85
2023-01-02T03:23:29.002Z,2.25
2023-01-02T03:25:58.077Z,2.45
2023-01-02T03:28:26.977Z,2.63
2023-01-02T03:30:57.608Z,2.33
2023-01-02T03:33:35.965Z,2.70
2023-01-02T03:36:16.317Z,2.53
2023-01-02T03:38:54.098Z,2.80
2023-01-02T03:41:28.838Z,2.50
2023-01-02T03:43:58.836Z,2.40
2023-01-02T03:46:38.715Z,2.65
2023-01-02T03:49:11.992Z,2.70
2023-01-02T03:51:38.468Z,2.80
2023-01-02T03:54:05.907Z,2.55
2023-01-02T03:56:46.164Z,2.67
2023-01-02T03:59:36.501Z,2.95
2023-01-02T04:02:12.151Z,2.78
2023-01-02T04:04:53.446Z,2.75
2023-01-02T04:07:37.379Z,2.80
2023-01-02T04:10:07.640Z,2.38
2023-01-02T04:12:38.355Z,2.20
2023-01-02T04:15:11.531Z,1.98
2023-01-02T04:17:48.010Z,1.95
2023-01-02T04:20:23.703Z,2.17
2023-01-02T04:22:57.713Z,2.10
2023-01-02T04:25:29.199Z,1.85
2023-01-02T04:28:11.062Z,1.98
2023-01-02T04:30:42.635Z,2.10
2023-01-02T04:33:11.457Z,1.95
2023-01-02T04:35:37.956Z,1.70
2023-01-02T04:38:08.847Z,1.88
2023-01-02T04:40:37.975Z,2.15
2023-01-02T04:43:12.703Z,2.30
2023-01-02T04:45:39.067Z,1.90
2023-01-02T04:48:05.758Z,2.00
2023-01-02T04:50:32.130Z,2.00
2023-01-02T04:52:58.505Z,2.22
2023-01-02T04:55:24.874Z,2.25
2023-01-02T04:57:51.286Z,2.83
2023-01-02T05:00:17.971Z,2.65
2023-01-02T05:02:44.468Z,2.38
2023-01-02T05:05:10.969Z,2.70
2023-01-02T05:07:38.001Z,3.40
2023-01-02T05:10:05.464Z,5.47
2023-01-02T05:12:35.455Z,5.57
2023-01-02T05:15:02.713Z,5.18
2023-01-02T05:17:29.260Z,4.60
2023-01-02T05:19:55.651Z,3.15
2023-01-02T05:22:40.721Z,2.50
2023-01-02T05:25:07.444Z,2.28
2023-01-02T05:27:33.824Z,2.40
2023-01-02T05:30:00.210Z,2.55
2023-01-02T05:32:27.628Z,2.28
2023-01-02T05:35:08.719Z,2.30
2023-01-02T05:37:35.099Z,1.88
2023-01-02T05:40:01.492Z,2.22
2023-01-02T05:42:27.880Z,2.30
2023-01-02T05:44:54.312Z,1.92
2023-01-02T05:47:20.779Z,1.95
2023-01-02T05:49:47.234Z,1.65
2023-01-02T05:52:13.689Z,1.98
2023-01-02T05:54:40.159Z,2.22
2023-01-02T05:57:06.980Z,2.38
2023-01-02T05:59:36.219Z,2.53
2023-01-02T06:02:03.151Z,2.72
2023-01-02T06:04:29.674Z,2.60
2023-01-02T06:06:56.054Z,2.40
2023-01-02T06:09:22.793Z,3.00
2023-01-02T06:11:49.284Z,4.85
2023-01-02T06:14:15.679Z,3.22
2023-01-02T06:16:42.117Z,2.40
2023-01-02T06:19:08.581Z,2.30
2023-01-02T06:21:35.089Z,1.88
2023-01-02T06:24:01.597Z,1.90
2023-01-02T06:26:34.240Z,1.90
2023-01-02T06:29:02.105Z,1.85
2023-01-02T06:31:29.620Z,1.67
2023-01-02T06:34:00.950Z,2.20
2023-01-02T06:36:30.774Z,1.73
2023-01-02T06:38:57.713Z,2.08
2023-01-02T06:41:24.294Z,2.00
2023-01-02T06:43:51.803Z,2.30
2023-01-02T06:46:20.630Z,3.25
2023-01-02T06:48:47.653Z,3.38
2023-01-02T06:51:17.106Z,3.05
2023-01-02T06:53:44.585Z,3.22
2023-01-02T06:56:12.583Z,3.50
2023-01-02T06:58:39.201Z,3.55
2023-01-02T07:01:08.637Z,3.55
2023-01-02T07:03:35.795Z,3.38
2023-01-02T07:06:03.861Z,2.90
2023-01-02T07:08:31.472Z,2.67
2023-01-02T07:11:14.044Z,2.67
2023-01-02T07:13:42.100Z,2.50
2023-01-02T07:16:11.400Z,2.80
2023-01-02T07:18:38.301Z,3.17
2023-01-02T07:21:08.328Z,3.35
2023-01-02T07:23:35.806Z,2.65
2023-01-02T07:26:03.881Z,2.92
2023-01-02T07:28:31.308Z,2.88
2023-01-02T07:31:05.138Z,3.05
2023-01-02T07:33:32.290Z,3.30
2023-01-02T07:36:06.460Z,3.00
2023-01-02T07:38:33.972Z,3.17
2023-01-02T07:41:00.673Z,2.45
2023-01-02T07:43:33.336Z,3.15
2023-01-02T07:46:04.382Z,4.65
2023-01-02T07:48:31.762Z,3.88
2023-01-02T07:51:06.027Z,2.33
2023-01-02T07:53:33.214Z,2.00
2023-01-02T07:56:00.998Z,2.38
2023-01-02T07:58:28.087Z,3.75
2023-01-02T08:00:59.812Z,3.65
2023-01-02T08:03:31.295Z,2.60
2023-01-02T08:06:15.611Z,2.70
2023-01-02T08:08:42.809Z,4.32
2023-01-02T08:11:14.388Z,3.60
2023-01-02T08:13:41.224Z,3.85
2023-01-02T08:16:13.840Z,3.05
2023-01-02T08:18:43.484Z,2.30
2023-01-02T08:21:10.785Z,2.90
2023-01-02T08:23:37.654Z,4.20
2023-01-02T08:26:06.761Z,3.55
2023-01-02T08:28:36.440Z,4.25
2023-01-02T08:31:14.928Z,5.18
2023-01-02T08:33:41.729Z,6.65
2023-01-02T08:36:09.338Z,4.57
2023-01-02T08:38:35.921Z,4.78
2023-01-02T08:41:11.699Z,3.88
2023-01-02T08:43:38.730Z,3.03
2023-01-02T08:46:07.403Z,4.10
2023-01-02T08:48:36.712Z,3.80
2023-01-02T08:51:04.943Z,4.07
2023-01-02T08:53:32.536Z,4.30
2023-01-02T08:56:26.233Z,3.75
2023-01-02T08:59:01.388Z,4.47
2023-01-02T09:01:32.407Z,4.03
2023-01-02T09:04:01.066Z,4.10
2023-01-02T09:06:36.851Z,4.45
2023-01-02T09:09:11.018Z,4.78
2023-01-02T09:11:51.503Z,4.95
2023-01-02T09:14:19.990Z,4.97
2023-01-02T09:16:46.946Z,4.68
2023-01-02T09:19:13.427Z,4.18
2023-01-02T09:21:41.027Z,4.05
2023-01-02T09:24:08.175Z,4.38
2023-01-02T09:26:35.297Z,3.97
2023-01-02T09:29:01.735Z,3.63
2023-01-02T09:31:38.389Z,3.80
2023-01-02T09:34:05.271Z,3.60
2023-01-02T09:36:33.764Z,3.50
2023-01-02T09:39:01.495Z,3.65
2023-01-02T09:41:35.834Z,3.20
2023-01-02T09:44:07.881Z,2.60
2023-01-02T09:47:00.668Z,3.22
2023-01-02T09:49:34.051Z,2.78
2023-01-02T09:52:08.312Z,2.80
2023-01-02T09:54:34.709Z,3.17
2023-01-02T09:57:24.822Z,2.55
2023-01-02T10:00:01.358Z,2.60
2023-01-02T10:03:12.125Z,3.17
2023-01-02T10:06:06.247Z,2.92
2023-01-02T10:09:03.068Z,2.80
2023-01-02T10:11:46.209Z,2.90
2023-01-02T10:14:37.377Z,2.25
2023-01-02T10:17:12.420Z,2.33
2023-01-02T10:20:22.027Z,3.65
2023-01-02T10:23:18.605Z,2.72
2023-01-02T10:25:52.953Z,2.47
2023-01-02T10:28:24.678Z,2.30
2023-01-02T10:31:06.919Z,2.20
2023-01-02T10:33:46.684Z,2.38
2023-01-02T10:36:31.230Z,2.70
2023-01-02T10:39:07.058Z,2.88
2023-01-02T10:41:35.148Z,3.53
2023-01-02T10:44:22.660Z,2.90
2023-01-02T10:46:52.656Z,2.53
2023-01-02T10:49:20.861Z,2.42
2023-01-02T10:51:58.350Z,2.33
2023-01-02T10:54:24.881Z,2.60
2023-01-02T10:56:51.405Z,4.05
2023-01-02T10:59:26.080Z,3.85
2023-01-02T11:01:57.886Z,3.58
2023-01-02T11:04:28.939Z,3.47
2023-01-02T11:07:24.973Z,3.75
2023-01-02T11:09:56.322Z,3.45
2023-01-02T11:12:27.697Z,3.08
2023-01-02T11:15:10.428Z,3.30
2023-01-02T11:17:43.801Z,3.15
2023-01-02T11:20:25.967Z,3.22
2023-01-02T11:23:14.394Z,4.65
2023-01-02T11:25:42.618Z,5.00
2023-01-02T11:28:26.396Z,5.10
2023-01-02T11:31:09.699Z,4.47
2023-01-02T11:33:38.379Z,4.43
2023-01-02T11:36:20.261Z,3.58
2023-01-02T11:38:46.780Z,3.53
2023-01-02T11:42:07.832Z,3.50
2023-01-02T11:44:44.748Z,3.90
2023-01-02T11:47:14.203Z,4.93
2023-01-02T11:49:44.270Z,4.85
2023-01-02T11:52:27.604Z,4.47
2023-01-02T11:55:08.065Z,3.90
2023-01-02T11:57:57.161Z,3.75
2023-01-02T12:00:27.575Z,2.50
2023-01-02T12:02:54.432Z,2.88
2023-01-02T12:05:59.881Z,2.70
2023-01-02T12:08:47.497Z,2.50
2023-01-02T12:11:24.625Z,2.50
2023-01-02T12:14:07.040Z,2.70
2023-01-02T12:16:48.249Z,2.45
2023-01-02T12:19:21.964Z,3.60
2023-01-02T12:22:15.061Z,3.03
2023-01-02T12:25:23.057Z,3.50
2023-01-02T12:30:22.985Z,3.25
2023-01-02T12:33:03.962Z,3.55
2023-01-02T12:35:37.142Z,3.65
2023-01-02T12:38:08.117Z,4.13
2023-01-02T12:40:56.404Z,3.47
2023-01-02T12:46:20.456Z,3.67
2023-01-02T12:49:20.139Z,1.92
2023-01-02T12:52:19.429Z,2.97
2023-01-02T12:54:56.106Z,2.88
2023-01-02T12:57:55.289Z,2.30
2023-01-02T13:00:25.599Z,2.67
2023-01-02T13:02:55.150Z,2.78
2023-01-02T13:05:27.544Z,2.35
2023-01-02T13:08:33.022Z,2.15
2023-01-02T13:11:04.264Z,1.98
2023-01-02T13:13:37.227Z,2.40
2023-01-02T13:16:24.529Z,3.30
2023-01-02T13:19:13.740Z,3.45
2023-01-02T13:21:52.480Z,2.53
2023-01-02T13:24:24.742Z,2.60
2023-01-02T13:26:53.497Z,2.70
2023-01-02T13:29:26.014Z,6.88
2023-01-02T13:31:54.547Z,7.03
2023-01-02T13:34:32.898Z,6.38
2023-01-02T13:37:13.317Z,3.95
2023-01-02T13:39:39.630Z,3.42
2023-01-02T13:42:27.064Z,3.38
2023-01-02T13:44:56.787Z,5.82
2023-01-02T13:47:34.347Z,5.45
2023-01-02T13:50:32.504Z,2.50
2023-01-02T13:53:04.852Z,2.95
2023-01-02T13:55:40.435Z,3.80
2023-01-02T13:58:13.303Z,2.83
2023-01-02T14:00:53.427Z,1.98
2023-01-02T14:03:21.040Z,1.48
2023-01-02T14:05:56.804Z,1.73
2023-01-02T14:08:34.700Z,1.98
2023-01-02T14:11:19.174Z,2.22
2023-01-02T14:13:51.460Z,1.67
2023-01-02T14:16:55.564Z,1.85
2023-01-02T14:19:24.412Z,1.40
2023-01-02T14:21:59.819Z,1.20
2023-01-02T14:24:34.647Z,1.25
2023-01-02T14:27:27.270Z,1.45
2023-01-02T14:30:08.687Z,1.63
2023-01-02T14:33:02.124Z,2.55
2023-01-02T14:35:33.120Z,1.73
2023-01-02T14:38:14.708Z,1.42
2023-01-02T14:40:42.896Z,1.65
2023-01-02T14:43:32.470Z,1.42
2023-01-02T14:46:07.247Z,1.50
2023-01-02T14:49:24.999Z,2.47
2023-01-02T14:52:01.029Z,2.30
2023-01-02T14:54:47.196Z,1.60
2023-01-02T14:57:38.481Z,1.53
2023-01-02T15:00:20.512Z,1.77
2023-01-02T15:02:54.146Z,2.30
2023-01-02T15:05:32.016Z,2.50
2023-01-02T15:08:00.236Z,2.88
2023-01-02T15:10:26.627Z,2.67
2023-01-02T15:13:03.495Z,1.60
2023-01-02T15:15:54.622Z,2.30
2023-01-02T15:18:32.864Z,2.20
2023-01-02T15:21:24.625Z,2.50
2023-01-02T15:23:51.986Z,2.08
2023-01-02T15:26:34.674Z,1.95
2023-01-02T15:29:18.891Z,2.78
2023-01-02T15:31:59.253Z,2.90
2023-01-02T15:34:36.695Z,3.10
2023-01-02T15:37:07.630Z,1.80
2023-01-02T15:39:38.317Z,2.08
2023-01-02T15:42:25.659Z,1.90
2023-01-02T15:45:12.369Z,2.22
2023-01-02T15:47:42.945Z,2.38
2023-01-02T15:50:20.776Z,1.80
2023-01-02T15:52:53.120Z,2.55
2023-01-02T15:55:25.514Z,2.10
2023-01-02T15:57:54.447Z,2.25
2023-01-02T16:00:31.643Z,1.52
2023-01-02T16:02:58.168Z,1.90
2023-01-02T16:05:24.829Z,1.95
2023-01-02T16:07:53.786Z,3.70
2023-01-02T16:10:23.919Z,1.63
2023-01-02T16:13:30.695Z,2.67
2023-01-02T16:16:15.457Z,4.70
2023-01-02T16:18:59.747Z,3.53
2023-01-02T16:21:31.682Z,4.50
2023-01-02T16:23:58.997Z,6.75
2023-01-02T16:26:33.213Z,5.70
2023-01-02T16:28:59.726Z,3.58
2023-01-02T16:31:26.336Z,10.52
2023-01-02T16:33:52.805Z,7.13
2023-01-02T16:36:24.727Z,2.97
2023-01-02T16:38:59.938Z,1.90
2023-01-02T16:41:33.807Z,1.80
2023-01-02T16:44:02.932Z,1.90
2023-01-02T16:46:30.585Z,1.92
2023-01-02T16:49:04.998Z,2.13
2023-01-02T16:51:32.314Z,2.55
2023-01-02T16:54:16.218Z,5.38
2023-01-02T16:57:13.907Z,4.30
2023-01-02T16:59:47.189Z,4.15
2023-01-02T17:02:14.503Z,5.53
2023-01-02T17:04:41.753Z,6.75
2023-01-02T17:07:22.154Z,5.50
2023-01-02T17:09:49.317Z,4.18
2023-01-02T17:12:25.106Z,4.47
2023-01-02T17:14:52.525Z,3.15
2023-01-02T17:17:18.999Z,4.65
2023-01-02T17:19:48.471Z,1.90
2023-01-02T17:22:14.919Z,1.98
2023-01-02T17:24:47.491Z,3.30
2023-01-02T17:27:14.935Z,4.05
2023-01-02T17:29:41.670Z,2.00
2023-01-02T17:32:08.337Z,1.73
2023-01-02T17:34:34.742Z,1.73
2023-01-02T17:37:07.390Z,1.55
2023-01-02T17:39:33.762Z,1.98
2023-01-02T17:42:00.320Z,1.85
2023-01-02T17:44:26.744Z,2.00
2023-01-02T17:49:40.636Z,1.88
2023-01-02T17:52:07.412Z,1.70
2023-01-02T17:54:34.105Z,1.65
2023-01-02T17:57:01.287Z,2.15
2023-01-02T17:59:27.792Z,2.10
2023-01-02T18:01:54.402Z,2.38
2023-01-02T18:04:21.087Z,2.28
2023-01-02T18:06:47.493Z,2.15
2023-01-02T18:09:14.125Z,1.63
2023-01-02T18:11:40.520Z,2.00
2023-01-02T18:14:28.307Z,2.47
2023-01-02T18:16:57.407Z,2.35
2023-01-02T18:19:26.802Z,2.65
2023-01-02T18:21:55.733Z,2.40
2023-01-02T18:24:31.518Z,3.10
2023-01-02T18:27:14.243Z,3.08
2023-01-02T18:29:41.709Z,2.70
2023-01-02T18:32:15.088Z,2.95
2023-01-02T18:34:53.503Z,2.85
2023-01-02T18:37:26.974Z,2.00
2023-01-02T18:39:55.024Z,2.80
2023-01-02T18:42:32.098Z,10.45
2023-01-02T18:44:59.879Z,2.60
2023-01-02T18:47:36.923Z,6.78
2023-01-02T18:50:27.201Z,2.58
2023-01-02T18:52:53.585Z,2.83
2023-01-02T20:48:43.397Z,2.60
2023-01-02T20:51:09.795Z,2.33
2023-01-02T20:53:38.273Z,3.20
2023-01-02T20:56:05.107Z,6.30
2023-01-02T20:58:31.567Z,2.40
2023-01-02T21:01:01.775Z,1.83
2023-01-02T21:03:28.253Z,3.47
2023-01-02T21:05:54.775Z,3.72
2023-01-02T21:08:21.661Z,1.75
2023-01-02T21:10:50.186Z,1.67
2023-01-02T21:13:16.550Z,2.08
2023-01-02T21:15:45.793Z,2.67
2023-01-02T21:18:18.295Z,1.83
2023-01-02T21:20:47.278Z,1.90
2023-01-02T21:23:14.241Z,2.08
2023-01-02T21:25:43.846Z,1.90
2023-01-02T21:28:12.403Z,1.92
2023-01-02T21:30:40.979Z,2.10
2023-01-02T21:33:07.866Z,2.30
2023-01-02T21:35:34.982Z,2.38
2023-01-02T21:38:01.706Z,1.90
2023-01-02T21:40:28.700Z,1.70
2023-01-02T21:42:55.586Z,1.67
2023-01-02T21:45:22.360Z,1.65
2023-01-02T21:47:48.932Z,1.00
2023-01-02T21:50:15.386Z,1.10
2023-01-02T21:52:41.751Z,1.23
2023-01-02T21:55:17.503Z,1.00
2023-01-02T21:58:12.527Z,1.15
2023-01-02T22:00:31.525Z,1.02
2023-01-02T22:02:58.332Z,1.13
2023-01-02T22:05:27.926Z,0.70
2023-01-02T22:07:54.464Z,0.82
2023-01-02T22:10:20.854Z,0.70
2023-01-02T22:12:47.262Z,0.75
2023-01-02T22:15:14.713Z,0.90
2023-01-02T22:17:41.323Z,0.60
2023-01-02T22:20:08.720Z,0.50
2023-01-02T22:22:35.150Z,0.73
2023-01-02T22:25:01.994Z,0.70
2023-01-02T22:27:28.843Z,0.65
2023-01-02T22:32:44.525Z,0.63
2023-01-02T22:35:10.973Z,0.60
2023-01-02T22:37:41.472Z,0.77
2023-01-02T22:40:08.375Z,0.65
2023-01-02T22:43:10.498Z,0.68
2023-01-02T22:45:50.423Z,0.60
2023-01-02T22:48:26.443Z,0.82
2023-01-02T22:50:57.335Z,0.60
2023-01-02T22:53:30.520Z,0.50
2023-01-02T22:55:56.969Z,0.60
2023-01-02T22:58:24.664Z,0.50
2023-01-02T23:01:03.306Z,0.75
2023-01-02T23:03:36.837Z,0.57
2023-01-02T23:06:22.129Z,0.70
2023-01-02T23:08:49.463Z,0.52
2023-01-02T23:11:16.079Z,0.60
2023-01-02T23:13:43.338Z,0.88
2023-01-02T23:16:29.000Z,0.68
2023-01-02T23:19:17.458Z,1.00
2023-01-02T23:21:47.346Z,0.80
2023-01-02T23:24:16.756Z,0.90
2023-01-02T23:26:46.409Z,0.82
2023-01-02T23:29:13.822Z,1.00
2023-01-02T23:31:43.734Z,0.90
2023-01-02T23:34:12.463Z,0.80
2023-01-02T23:36:39.528Z,0.95
2023-01-02T23:39:11.650Z,1.23
2023-01-02T23:41:39.160Z,1.02
2023-01-02T23:44:06.465Z,0.85
2023-01-02T23:46:34.532Z,1.00
2023-01-02T23:49:01.886Z,0.90
2023-01-02T23:51:28.295Z,0.80
2023-01-02T23:53:54.858Z,0.90
2023-01-02T23:56:27.929Z,0.70
2023-01-02T23:58:56.343Z,0.70
